Time;durP1;ratioP1;P1;durP2;ratioP2;P2;SDS_P1;SDS_P2;PMS_P1;PMS_P2;Temp;Humidity;BMP_temperature;BMP_pressure;BME280_temperature;BME280_humidity;BME280_pressure;Samples;Min_cycle;Max_cycle;Signal;HPM_P1;HPM_P2
2022/12/17 13:07:24;;;;;;;34.00;20.80;;;-0.40;99.90;;;;;;5080849;28;20477;-52
2022/12/17 13:09:54;;;;;;;37.57;21.87;;;-0.30;99.90;;;;;;5081654;28;20541;-52
2022/12/17 13:12:30;;;;;;;38.63;22.40;;;-0.30;99.90;;;;;;5088339;28;20522;-52
2022/12/17 13:15:22;;;;;;;36.70;21.10;;;-0.50;99.90;;;;;;5080421;28;20486;-51
2022/12/17 13:18:01;;;;;;;33.63;21.23;;;-0.50;99.90;;;;;;5083313;28;20480;-53
2022/12/17 13:20:31;;;;;;;34.43;21.93;;;-0.60;99.90;;;;;;5079697;28;20832;-53
2022/12/17 13:23:26;;;;;;;38.13;23.53;;;-0.60;99.90;;;;;;5079364;28;20862;-53
2022/12/17 13:26:22;;;;;;;36.20;22.73;;;-0.50;99.90;;;;;;5085251;28;20472;-52
2022/12/17 13:29:10;;;;;;;38.97;22.80;;;-0.50;99.90;;;;;;5078951;28;20570;-50
2022/12/17 13:31:47;;;;;;;40.00;23.30;;;-0.70;99.90;;;;;;5086966;28;20636;-52
2022/12/17 13:34:21;;;;;;;39.13;24.07;;;-0.80;99.90;;;;;;5080958;28;20464;-54
2022/12/17 13:36:57;;;;;;;33.73;22.17;;;-0.90;99.90;;;;;;5083125;28;21591;-52
2022/12/17 13:39:39;;;;;;;40.23;24.13;;;-0.90;99.90;;;;;;5085815;28;20897;-52
2022/12/17 13:42:18;;;;;;;32.37;21.13;;;-0.80;99.90;;;;;;5081928;28;20794;-53
2022/12/17 13:44:47;;;;;;;38.63;24.37;;;-0.80;99.90;;;;;;5076251;28;20528;-52
2022/12/17 13:47:21;;;;;;;38.63;23.80;;;-0.80;99.90;;;;;;5075817;28;20456;-52
2022/12/17 13:49:51;;;;;;;40.53;24.80;;;-0.80;99.90;;;;;;5079198;28;20472;-53
2022/12/17 13:52:40;;;;;;;36.63;23.90;;;-0.90;99.90;;;;;;5089495;28;20521;-51
2022/12/17 13:55:17;;;;;;;43.87;24.87;;;-0.90;99.90;;;;;;5077730;28;20844;-53
2022/12/17 13:57:46;;;;;;;44.83;27.33;;;-0.90;99.90;;;;;;5083647;28;20468;-53
2022/12/17 14:00:20;;;;;;;46.80;28.87;;;-0.90;99.90;;;;;;5084639;28;20650;-52
2022/12/17 14:02:49;;;;;;;48.10;30.33;;;-1.00;99.90;;;;;;5082336;28;21023;-55
2022/12/17 14:05:26;;;;;;;43.07;27.37;;;-1.00;99.90;;;;;;5083409;28;20472;-52
2022/12/17 14:07:58;;;;;;;41.93;25.47;;;-1.00;99.90;;;;;;5080421;28;20479;-52
2022/12/17 14:10:28;;;;;;;44.83;27.47;;;-1.10;99.90;;;;;;5074973;28;20482;-52
2022/12/17 14:13:04;;;;;;;38.80;24.27;;;-1.10;99.90;;;;;;5080731;28;20824;-55
2022/12/17 14:15:33;;;;;;;38.00;24.57;;;-1.10;99.90;;;;;;5081465;28;20476;-54
2022/12/17 14:18:02;;;;;;;39.63;24.67;;;-1.10;99.90;;;;;;5080884;28;20552;-52
2022/12/17 14:20:32;;;;;;;36.43;23.20;;;-1.20;99.90;;;;;;5071097;28;20471;-53
2022/12/17 14:23:04;;;;;;;34.40;22.03;;;-1.20;99.90;;;;;;5080344;28;20461;-52
2022/12/17 14:25:36;;;;;;;40.93;24.33;;;-1.20;99.90;;;;;;5076878;28;20464;-52
2022/12/17 14:28:19;;;;;;;36.10;22.73;;;-1.20;99.90;;;;;;5081777;28;20487;-52
2022/12/17 14:30:47;;;;;;;37.13;23.37;;;-1.20;99.90;;;;;;5085379;28;20533;-53
2022/12/17 14:33:37;;;;;;;40.40;23.33;;;-1.30;99.90;;;;;;5075152;28;20469;-52
2022/12/17 14:36:08;;;;;;;41.17;24.57;;;-1.30;99.90;;;;;;5083824;28;20509;-54
2022/12/17 14:38:36;;;;;;;41.37;23.63;;;-1.30;99.90;;;;;;5079741;28;20473;-52
2022/12/17 14:43:58;;;;;;;42.63;26.10;;;-1.30;99.90;;;;;;5082551;28;20468;-51
2022/12/17 14:46:27;;;;;;;43.17;26.40;;;-1.40;99.90;;;;;;5074059;28;20465;-52
2022/12/17 14:49:03;;;;;;;38.03;24.80;;;-1.40;99.90;;;;;;5081704;28;20472;-53
2022/12/17 14:51:34;;;;;;;42.00;23.93;;;-1.50;99.90;;;;;;5078464;28;22019;-52
2022/12/17 14:54:07;;;;;;;38.47;24.10;;;-1.60;99.90;;;;;;5082126;28;20484;-53
2022/12/17 14:56:36;;;;;;;39.50;24.70;;;-1.60;99.90;;;;;;5078139;28;20479;-52
2022/12/17 14:59:04;;;;;;;44.37;25.20;;;-1.60;99.90;;;;;;5084933;28;20527;-53
2022/12/17 15:01:34;;;;;;;40.63;23.97;;;-1.70;99.90;;;;;;5083363;28;20516;-52
2022/12/17 15:04:03;;;;;;;40.50;24.77;;;-1.70;99.90;;;;;;5083342;28;20464;-52
2022/12/17 15:06:31;;;;;;;40.87;25.13;;;-1.70;99.90;;;;;;5078641;28;20473;-53
2022/12/17 15:08:59;;;;;;;41.27;25.40;;;-1.70;99.90;;;;;;5081154;28;20871;-52
2022/12/17 15:11:27;;;;;;;46.80;26.10;;;-1.80;99.90;;;;;;5078585;28;20504;-53
2022/12/17 15:13:56;;;;;;;43.47;25.43;;;-1.80;99.90;;;;;;5084066;28;20478;-52
2022/12/17 15:16:24;;;;;;;48.50;31.10;;;-1.90;99.90;;;;;;5078192;28;20473;-53
2022/12/17 15:18:52;;;;;;;48.63;30.93;;;-1.90;99.90;;;;;;5075556;28;20461;-51
2022/12/17 15:21:21;;;;;;;56.22;39.00;;;-2.00;99.90;;;;;;5076870;28;20794;-51
2022/12/17 15:23:49;;;;;;;55.93;34.27;;;-2.00;99.90;;;;;;5078450;28;20241;-55
2022/12/17 15:26:18;;;;;;;49.87;32.13;;;-2.00;99.90;;;;;;5076955;28;20999;-53
2022/12/17 15:28:46;;;;;;;55.87;32.53;;;-2.10;99.90;;;;;;5079693;28;20452;-52
2022/12/17 15:31:16;;;;;;;53.40;31.47;;;-2.00;99.90;;;;;;5077533;28;20481;-51
2022/12/17 15:33:51;;;;;;;47.20;28.07;;;-2.10;99.90;;;;;;5077543;28;20552;-52
2022/12/17 15:36:19;;;;;;;52.97;30.93;;;-2.00;99.90;;;;;;5074676;28;20485;-54
2022/12/17 15:38:47;;;;;;;47.33;28.77;;;-2.00;99.90;;;;;;5076818;28;20484;-52
2022/12/17 15:44:01;;;;;;;49.07;28.77;;;-2.10;99.90;;;;;;5083128;28;20475;-50
2022/12/17 15:46:30;;;;;;;52.83;29.33;;;-2.10;99.90;;;;;;5079901;28;20494;-52
2022/12/17 15:48:58;;;;;;;47.50;29.70;;;-2.10;99.90;;;;;;5078442;28;20460;-51
2022/12/17 15:51:26;;;;;;;48.97;27.47;;;-2.20;99.90;;;;;;5085543;28;20535;-52
2022/12/17 15:53:54;;;;;;;47.77;28.17;;;-2.10;99.90;;;;;;5078670;28;20840;-52
2022/12/17 15:56:24;;;;;;;52.67;28.40;;;-2.30;99.90;;;;;;5085375;28;20464;-51
2022/12/17 15:58:52;;;;;;;52.03;28.40;;;-2.20;99.90;;;;;;5077463;28;20474;-53
2022/12/17 16:01:20;;;;;;;51.90;27.47;;;-2.20;99.90;;;;;;5084214;28;20483;-52
2022/12/17 16:03:50;;;;;;;50.00;29.03;;;-2.20;99.90;;;;;;5079211;28;20482;-53
2022/12/17 16:06:18;;;;;;;50.87;28.57;;;-2.20;99.90;;;;;;5075583;28;20469;-51
2022/12/17 16:08:46;;;;;;;53.73;29.87;;;-2.20;99.90;;;;;;5073618;28;20465;-53
2022/12/17 16:11:15;;;;;;;49.23;28.30;;;-2.20;99.90;;;;;;5079527;28;20514;-53
2022/12/17 16:13:43;;;;;;;50.60;29.03;;;-2.30;99.90;;;;;;5083315;28;20466;-51
2022/12/17 16:16:11;;;;;;;52.23;29.03;;;-2.40;99.90;;;;;;5081347;28;20464;-52
2022/12/17 16:18:40;;;;;;;53.50;28.90;;;-2.40;99.90;;;;;;5082505;28;20488;-52
2022/12/17 16:21:09;;;;;;;50.47;28.10;;;-2.40;99.90;;;;;;5079720;28;20873;-52
2022/12/17 16:23:38;;;;;;;46.50;26.80;;;-2.40;99.90;;;;;;5077208;28;20476;-51
2022/12/17 16:26:08;;;;;;;48.90;27.60;;;-2.40;99.90;;;;;;5080321;28;20477;-53
2022/12/17 16:28:36;;;;;;;47.23;28.43;;;-2.40;99.90;;;;;;5079229;28;20506;-52
2022/12/17 16:31:07;;;;;;;47.63;28.43;;;-2.40;99.90;;;;;;5077003;28;20995;-53
2022/12/17 16:33:37;;;;;;;51.70;29.03;;;-2.40;99.90;;;;;;5078162;28;20458;-53
2022/12/17 16:36:06;;;;;;;57.70;29.77;;;-2.50;99.90;;;;;;5076271;28;20452;-54
2022/12/17 16:38:36;;;;;;;46.57;28.40;;;-2.50;99.90;;;;;;5077918;28;20473;-53
2022/12/17 16:41:05;;;;;;;46.80;26.83;;;-2.60;99.90;;;;;;5078358;28;20506;-53
2022/12/17 16:43:34;;;;;;;46.80;29.03;;;-2.60;99.90;;;;;;5082220;28;20466;-53
2022/12/17 16:46:02;;;;;;;46.43;28.23;;;-2.60;99.90;;;;;;5076129;28;20472;-52
2022/12/17 16:48:39;;;;;;;46.57;27.57;;;-2.60;99.90;;;;;;5077035;28;20975;-53
2022/12/17 16:51:16;;;;;;;50.27;28.67;;;-2.60;99.90;;;;;;5081113;28;20504;-52
2022/12/17 16:53:56;;;;;;;48.27;27.17;;;-2.60;99.90;;;;;;5076938;28;20995;-53
2022/12/17 16:56:27;;;;;;;48.53;29.97;;;-2.60;99.90;;;;;;5075494;28;20473;-53
2022/12/17 16:58:55;;;;;;;48.67;29.13;;;-2.60;99.90;;;;;;5079652;28;20511;-51
2022/12/17 17:01:25;;;;;;;46.40;28.00;;;-2.40;99.90;;;;;;5078990;28;20824;-53
2022/12/17 17:03:54;;;;;;;47.33;27.63;;;-2.60;99.90;;;;;;5078440;28;20547;-52
2022/12/17 17:06:22;;;;;;;45.77;27.53;;;-2.60;99.90;;;;;;5080553;28;20476;-51
2022/12/17 17:08:58;;;;;;;49.30;29.23;;;-2.50;99.90;;;;;;5077037;28;20991;-52
2022/12/17 17:11:26;;;;;;;45.17;28.70;;;-2.50;99.90;;;;;;5082900;28;20472;-51
2022/12/17 17:13:54;;;;;;;51.50;32.07;;;-2.60;99.90;;;;;;5076029;28;20465;-52
2022/12/17 17:16:24;;;;;;;50.90;29.33;;;-2.70;99.90;;;;;;5082964;28;20469;-53
2022/12/17 17:18:54;;;;;;;48.90;30.30;;;-2.70;99.90;;;;;;5081045;28;20468;-50
2022/12/17 17:21:26;;;;;;;44.03;27.63;;;-2.60;99.90;;;;;;5089732;28;20464;-53
2022/12/17 17:23:58;;;;;;;51.43;29.50;;;-2.60;99.90;;;;;;5084852;28;20460;-53
2022/12/17 17:26:27;;;;;;;47.53;27.80;;;-2.70;99.90;;;;;;5081758;28;20835;-51
2022/12/17 17:28:56;;;;;;;52.30;29.43;;;-2.70;99.90;;;;;;5085863;28;20502;-53
2022/12/17 17:31:24;;;;;;;46.33;28.40;;;-2.80;99.90;;;;;;5083007;28;20478;-51
2022/12/17 17:34:14;;;;;;;44.13;27.63;;;-2.80;99.90;;;;;;5080510;28;20513;-53
2022/12/17 17:36:42;;;;;;;48.03;28.33;;;-2.80;99.90;;;;;;5085203;28;20473;-52
2022/12/17 17:39:12;;;;;;;48.27;28.83;;;-2.80;99.90;;;;;;5087374;28;20468;-52
2022/12/17 17:41:40;;;;;;;52.27;29.80;;;-2.80;99.90;;;;;;5076182;28;20477;-49
2022/12/17 17:44:11;;;;;;;45.77;28.20;;;-2.80;99.90;;;;;;5080070;28;20472;-52
2022/12/17 17:46:39;;;;;;;47.23;28.77;;;-2.80;99.90;;;;;;5084777;28;20479;-53
2022/12/17 17:49:08;;;;;;;53.13;30.63;;;-2.90;99.90;;;;;;5077981;28;20473;-52
2022/12/17 17:51:40;;;;;;;53.70;31.23;;;-2.90;99.90;;;;;;5083204;28;20480;-50
2022/12/17 17:54:30;;;;;;;52.87;30.40;;;-3.00;99.90;;;;;;5080701;28;20457;-53
2022/12/17 17:56:58;;;;;;;50.63;29.63;;;-2.90;99.90;;;;;;5074031;28;20949;-53
2022/12/17 17:59:26;;;;;;;49.20;28.30;;;-3.00;99.90;;;;;;5081208;28;20530;-52
2022/12/17 18:02:01;;;;;;;53.07;30.53;;;-3.00;99.90;;;;;;5075588;28;20469;-52
2022/12/17 18:04:30;;;;;;;54.37;30.33;;;-3.00;99.90;;;;;;5078322;28;20469;-52
2022/12/17 18:06:58;;;;;;;56.17;30.57;;;-3.00;99.90;;;;;;5085867;28;20986;-53
2022/12/17 18:09:48;;;;;;;51.63;30.70;;;-3.00;99.90;;;;;;5072379;28;20495;-52
2022/12/17 18:15:01;;;;;;;50.90;30.37;;;-3.10;99.90;;;;;;5094919;28;20476;-50
2022/12/17 18:17:42;;;;;;;50.23;28.53;;;-3.00;99.90;;;;;;5094666;28;20460;-54
2022/12/17 18:20:12;;;;;;;51.40;29.00;;;-3.10;99.90;;;;;;5095074;28;20549;-52
2022/12/17 18:22:40;;;;;;;53.20;29.13;;;-3.10;99.90;;;;;;5094688;28;20449;-51
2022/12/17 18:25:10;;;;;;;50.63;30.43;;;-3.10;99.90;;;;;;5076811;28;20825;-52
2022/12/17 18:27:38;;;;;;;49.43;27.73;;;-3.10;99.90;;;;;;5074321;28;20465;-52
2022/12/17 18:30:07;;;;;;;47.27;29.67;;;-3.10;99.90;;;;;;5074176;28;20470;-52
2022/12/17 18:32:35;;;;;;;48.20;29.03;;;-3.10;99.90;;;;;;5073024;28;20481;-50
2022/12/17 18:35:03;;;;;;;49.27;29.33;;;-3.10;99.90;;;;;;5074031;28;20507;-52
2022/12/17 18:37:31;;;;;;;54.00;30.77;;;-3.20;99.90;;;;;;5084370;28;20471;-50
2022/12/17 18:40:00;;;;;;;49.37;29.40;;;-3.10;99.90;;;;;;5093930;28;20476;-52
2022/12/17 18:45:14;;;;;;;47.23;30.77;;;-3.30;99.90;;;;;;5092167;28;20472;-51
2022/12/17 18:47:43;;;;;;;44.97;27.57;;;-3.30;99.90;;;;;;5088344;28;20479;-52
2022/12/17 18:50:12;;;;;;;48.07;29.20;;;-3.20;99.90;;;;;;5092769;28;20470;-53
2022/12/17 18:52:41;;;;;;;47.50;28.70;;;-3.20;99.90;;;;;;5093307;28;20495;-53
2022/12/17 18:55:09;;;;;;;47.23;28.03;;;-3.10;99.90;;;;;;5094215;28;20467;-52
2022/12/17 18:57:38;;;;;;;45.73;29.33;;;-3.20;99.90;;;;;;5081469;28;20960;-53
2022/12/17 19:00:08;;;;;;;45.37;29.97;;;-3.20;99.90;;;;;;5073901;28;20538;-53
2022/12/17 19:02:36;;;;;;;50.10;30.70;;;-3.20;99.90;;;;;;5073280;28;20472;-53
2022/12/17 19:05:04;;;;;;;48.20;30.57;;;-3.20;99.90;;;;;;5091126;28;21050;-52
2022/12/17 19:07:32;;;;;;;47.90;30.23;;;-3.20;99.90;;;;;;5090997;28;20476;-52
2022/12/17 19:10:00;;;;;;;48.63;30.20;;;-3.20;99.90;;;;;;5093765;28;20975;-54
2022/12/17 19:12:28;;;;;;;44.43;29.87;;;-3.20;99.90;;;;;;5093370;28;20867;-50
2022/12/17 19:14:58;;;;;;;48.17;29.90;;;-3.10;99.90;;;;;;5091120;28;20492;-52
2022/12/17 19:17:26;;;;;;;44.90;30.27;;;-3.20;99.90;;;;;;5093119;28;20518;-50
2022/12/17 19:19:54;;;;;;;47.93;30.53;;;-3.20;99.90;;;;;;5088444;28;20854;-52
2022/12/17 19:22:22;;;;;;;48.90;31.30;;;-3.20;99.90;;;;;;5093212;28;20971;-51
2022/12/17 19:24:50;;;;;;;47.27;30.63;;;-3.20;99.90;;;;;;5093171;28;20468;-52
2022/12/17 19:27:18;;;;;;;53.23;31.00;;;-3.10;99.90;;;;;;5083366;28;20507;-52
2022/12/17 19:29:47;;;;;;;43.83;29.17;;;-3.20;99.90;;;;;;5072188;28;20461;-51
2022/12/17 19:32:18;;;;;;;47.13;30.43;;;-3.10;99.90;;;;;;5072785;28;20527;-51
2022/12/17 19:34:46;;;;;;;49.60;31.97;;;-3.20;99.90;;;;;;5072978;28;20474;-53
2022/12/17 19:37:14;;;;;;;50.00;32.93;;;-3.20;99.90;;;;;;5073337;28;20462;-49
2022/12/17 19:39:42;;;;;;;54.03;35.20;;;-3.20;99.90;;;;;;5073258;28;20468;-52
2022/12/17 19:42:23;;;;;;;53.47;34.37;;;-3.30;99.90;;;;;;5073095;28;20476;-51
2022/12/17 19:44:53;;;;;;;51.37;30.90;;;-3.20;99.90;;;;;;5087507;28;20814;-51
2022/12/17 19:47:23;;;;;;;47.53;30.53;;;-3.30;99.90;;;;;;5092904;28;20471;-55
2022/12/17 19:49:51;;;;;;;49.83;30.73;;;-3.30;99.90;;;;;;5081778;28;20849;-54
2022/12/17 19:52:19;;;;;;;46.83;28.53;;;-3.30;99.90;;;;;;5072576;28;20473;-52
2022/12/17 19:54:49;;;;;;;46.93;29.33;;;-3.30;99.90;;;;;;5072564;28;20523;-54
2022/12/17 19:57:17;;;;;;;45.40;28.83;;;-3.40;99.90;;;;;;5073033;28;20965;-55
2022/12/17 19:59:46;;;;;;;50.47;29.73;;;-3.40;99.90;;;;;;5072450;28;20477;-54
2022/12/17 20:02:15;;;;;;;43.33;26.40;;;-3.40;99.90;;;;;;5072343;28;21004;-53
2022/12/17 20:04:45;;;;;;;51.47;29.13;;;-3.40;99.90;;;;;;5072540;28;20598;-53
2022/12/17 20:07:13;;;;;;;41.97;26.60;;;-3.40;99.90;;;;;;5072623;28;20469;-54
2022/12/17 20:09:43;;;;;;;44.43;27.60;;;-3.50;99.90;;;;;;5072582;28;20967;-53
2022/12/17 20:12:12;;;;;;;43.33;27.47;;;-3.50;99.90;;;;;;5070910;28;20493;-54
2022/12/17 20:14:40;;;;;;;44.17;27.43;;;-3.50;99.90;;;;;;5075953;28;20841;-52
2022/12/17 20:17:09;;;;;;;41.37;26.30;;;-3.50;99.90;;;;;;5076438;28;20470;-52
2022/12/17 20:19:37;;;;;;;44.37;27.13;;;-3.50;99.90;;;;;;5073922;28;20475;-51
2022/12/17 20:22:07;;;;;;;43.27;27.17;;;-3.50;99.90;;;;;;5073938;28;20572;-52
2022/12/17 20:24:38;;;;;;;39.57;25.63;;;-3.50;99.90;;;;;;5074643;28;20466;-53
2022/12/17 20:27:06;;;;;;;44.07;27.40;;;-3.50;99.90;;;;;;5076683;28;20509;-52
2022/12/17 20:29:34;;;;;;;44.90;26.97;;;-3.40;99.90;;;;;;5077430;28;20526;-52
2022/12/17 20:32:03;;;;;;;43.40;26.73;;;-3.50;99.90;;;;;;5079803;28;20519;-52
2022/12/17 20:34:31;;;;;;;42.87;26.77;;;-3.50;99.90;;;;;;5083652;28;20541;-51
2022/12/17 20:36:59;;;;;;;43.70;28.03;;;-3.50;99.90;;;;;;5078062;28;20469;-49
2022/12/17 20:39:28;;;;;;;47.80;27.83;;;-3.50;99.90;;;;;;5076491;28;20465;-49
2022/12/17 20:41:57;;;;;;;40.20;25.77;;;-3.50;99.90;;;;;;5068271;28;20476;-51
2022/12/17 20:44:25;;;;;;;41.90;26.40;;;-3.60;99.90;;;;;;5073572;28;20472;-51
2022/12/17 20:46:53;;;;;;;41.27;25.80;;;-3.60;99.90;;;;;;5074473;28;20473;-54
2022/12/17 20:49:21;;;;;;;33.60;23.43;;;-3.60;99.90;;;;;;5072828;28;20458;-54
2022/12/17 20:51:49;;;;;;;37.07;25.30;;;-3.50;99.90;;;;;;5075056;28;21015;-54
2022/12/17 20:54:18;;;;;;;48.60;28.87;;;-3.40;99.90;;;;;;5080893;28;20499;-55
2022/12/17 20:56:47;;;;;;;44.60;28.90;;;-3.50;99.90;;;;;;5076454;28;20470;-52
2022/12/17 20:59:17;;;;;;;42.97;27.73;;;-3.60;99.90;;;;;;5081341;28;20467;-53
2022/12/17 21:01:47;;;;;;;40.03;27.13;;;-3.60;99.90;;;;;;5077230;28;20479;-51
2022/12/17 21:04:23;;;;;;;39.47;26.43;;;-3.50;99.90;;;;;;5077481;28;20467;-51
2022/12/17 21:06:51;;;;;;;42.63;27.30;;;-3.50;99.90;;;;;;5083413;28;20463;-51
2022/12/17 21:09:21;;;;;;;39.10;27.17;;;-3.60;99.90;;;;;;5086205;28;20452;-52
2022/12/17 21:11:51;;;;;;;40.60;26.97;;;-3.50;99.90;;;;;;5078610;28;20468;-52
2022/12/17 21:14:19;;;;;;;40.37;25.70;;;-3.50;99.90;;;;;;5078064;28;20477;-54
2022/12/17 21:16:48;;;;;;;39.57;25.93;;;-3.60;99.90;;;;;;5079362;28;20471;-52
2022/12/17 21:19:18;;;;;;;39.30;27.10;;;-3.60;99.90;;;;;;5080739;28;20505;-52
2022/12/17 21:21:49;;;;;;;39.77;25.60;;;-3.70;99.90;;;;;;5079670;28;20987;-51
2022/12/17 21:24:17;;;;;;;40.00;25.70;;;-3.70;99.90;;;;;;5080858;28;20461;-55
2022/12/17 21:26:45;;;;;;;37.13;24.67;;;-3.70;99.90;;;;;;5074581;28;20465;-53
2022/12/17 21:29:15;;;;;;;44.23;25.57;;;-3.70;99.90;;;;;;5081412;28;20474;-51
2022/12/17 21:31:46;;;;;;;40.90;25.63;;;-3.70;99.90;;;;;;5079099;28;20837;-52
2022/12/17 21:34:16;;;;;;;34.33;24.30;;;-3.70;99.90;;;;;;5080627;28;20543;-51
2022/12/17 21:36:44;;;;;;;37.47;24.50;;;-3.70;99.90;;;;;;5089770;28;20471;-51
2022/12/17 21:39:14;;;;;;;34.40;23.10;;;-3.70;99.90;;;;;;5084943;28;20828;-51
2022/12/17 21:43:00;;;;;;;35.73;21.23;;;-3.70;99.90;;;;;;5083574;28;20992;-49
2022/12/17 21:44:33;;;;;;;38.57;24.53;;;-3.70;99.90;;;;;;5086244;28;20480;-49
2022/12/17 21:47:01;;;;;;;32.87;23.37;;;-3.70;99.90;;;;;;5077930;28;20859;-52
2022/12/17 21:49:30;;;;;;;34.73;22.80;;;-3.70;99.90;;;;;;5079741;28;20947;-53
2022/12/17 21:51:59;;;;;;;34.20;23.63;;;-3.60;99.90;;;;;;5077543;28;20456;-51
2022/12/17 21:54:27;;;;;;;35.47;24.07;;;-3.60;99.90;;;;;;5081567;28;21000;-51
2022/12/17 21:56:55;;;;;;;38.93;24.20;;;-3.70;99.90;;;;;;5084225;28;20487;-52
2022/12/17 21:59:24;;;;;;;38.67;24.60;;;-3.80;99.90;;;;;;5073431;28;20485;-50
2022/12/17 22:01:55;;;;;;;34.00;23.17;;;-3.80;99.90;;;;;;5079264;28;20480;-53
2022/12/17 22:04:25;;;;;;;37.40;25.10;;;-3.70;99.90;;;;;;5075501;28;20488;-52
2022/12/17 22:06:53;;;;;;;35.77;24.17;;;-3.80;99.90;;;;;;5077523;28;20916;-52
2022/12/17 22:09:35;;;;;;;34.53;23.30;;;-3.80;99.90;;;;;;5081222;28;21047;-56
2022/12/17 22:15:10;;;;;;;38.67;23.63;;;-3.80;99.90;;;;;;5073651;28;20493;-52
2022/12/17 22:17:42;;;;;;;39.83;23.57;;;-3.80;99.90;;;;;;5081721;28;20492;-51
2022/12/17 22:20:10;;;;;;;34.63;22.37;;;-3.80;99.90;;;;;;5075417;28;20863;-51
2022/12/17 22:22:39;;;;;;;30.43;22.50;;;-3.80;99.90;;;;;;5078687;28;20472;-52
2022/12/17 22:25:08;;;;;;;34.13;23.30;;;-3.90;99.90;;;;;;5083288;28;21063;-49
2022/12/17 22:27:38;;;;;;;36.87;24.63;;;-3.90;99.90;;;;;;5076736;28;20858;-52
2022/12/17 22:33:02;;;;;;;31.83;21.80;;;-3.90;99.90;;;;;;5048764;28;20486;-51
2022/12/17 22:35:50;;;;;;;34.80;21.93;;;-3.90;99.90;;;;;;5049019;28;20482;-52
2022/12/17 22:38:38;;;;;;;33.17;20.47;;;-3.90;99.90;;;;;;5048973;28;21012;-56
2022/12/17 22:44:32;;;;;;;33.60;21.30;;;-3.90;99.90;;;;;;5053163;28;20469;-52
2022/12/17 22:47:19;;;;;;;30.73;20.10;;;-3.90;99.90;;;;;;5047677;28;20466;-50
2022/12/17 22:49:49;;;;;;;32.43;20.80;;;-3.90;99.90;;;;;;5058122;28;20476;-53
2022/12/17 22:52:17;;;;;;;28.67;20.10;;;-4.00;99.90;;;;;;5062256;28;20888;-51
2022/12/17 22:54:47;;;;;;;29.53;19.60;;;-4.00;99.90;;;;;;5053192;28;20460;-51
2022/12/17 22:57:16;;;;;;;31.37;20.37;;;-4.00;99.90;;;;;;5053332;28;20825;-51
2022/12/17 23:00:12;;;;;;;31.77;20.60;;;-4.00;99.90;;;;;;5065378;28;20972;-50
2022/12/17 23:02:47;;;;;;;29.30;18.87;;;-4.00;99.90;;;;;;5058130;28;20965;-52
2022/12/17 23:05:16;;;;;;;28.80;18.23;;;-4.00;99.90;;;;;;5054020;28;20466;-52
2022/12/17 23:07:44;;;;;;;28.47;19.87;;;-3.90;99.90;;;;;;5053499;28;20470;-52
2022/12/17 23:10:13;;;;;;;31.20;19.33;;;-4.00;99.90;;;;;;5052402;28;20473;-51
2022/12/17 23:12:53;;;;;;;26.70;19.03;;;-4.00;99.90;;;;;;5053319;28;20463;-54
2022/12/17 23:15:24;;;;;;;30.60;18.97;;;-4.00;99.90;;;;;;5053476;28;21077;-54
2022/12/17 23:17:55;;;;;;;31.67;18.73;;;-4.00;99.90;;;;;;5053870;28;20989;-51
2022/12/17 23:20:26;;;;;;;27.70;17.53;;;-4.00;99.90;;;;;;5057418;28;20470;-49
2022/12/17 23:22:54;;;;;;;33.40;19.00;;;-4.00;99.90;;;;;;5053330;28;20972;-53
2022/12/17 23:25:23;;;;;;;26.83;17.77;;;-4.00;99.90;;;;;;5053617;28;20477;-52
2022/12/17 23:27:51;;;;;;;28.30;18.87;;;-4.00;99.90;;;;;;5053344;28;20466;-54
2022/12/17 23:30:20;;;;;;;29.37;17.93;;;-4.10;99.90;;;;;;5054132;28;20474;-54
2022/12/17 23:32:50;;;;;;;28.87;17.40;;;-4.00;99.90;;;;;;5077981;28;20481;-54
2022/12/17 23:35:18;;;;;;;28.33;18.10;;;-4.00;99.90;;;;;;5073088;28;20488;-53
2022/12/17 23:37:48;;;;;;;28.07;19.10;;;-4.10;99.90;;;;;;5072801;28;20464;-54
2022/12/17 23:40:16;;;;;;;29.17;17.73;;;-4.10;99.90;;;;;;5073362;28;20793;-53
2022/12/17 23:42:44;;;;;;;25.73;16.37;;;-4.10;99.90;;;;;;5072906;28;20476;-52
2022/12/17 23:45:12;;;;;;;24.80;16.47;;;-4.10;99.90;;;;;;5073084;28;20479;-55
2022/12/17 23:47:41;;;;;;;26.33;17.43;;;-4.10;99.90;;;;;;5073043;28;20461;-53
2022/12/17 23:50:10;;;;;;;27.83;17.10;;;-4.00;99.90;;;;;;5076737;28;20474;-54
2022/12/17 23:52:38;;;;;;;24.80;16.90;;;-4.10;99.90;;;;;;5072607;28;20472;-54
2022/12/17 23:55:10;;;;;;;31.50;17.43;;;-4.10;99.90;;;;;;5072858;28;20457;-54
2022/12/17 23:57:38;;;;;;;30.30;17.40;;;-4.10;99.90;;;;;;5072777;28;20468;-54
